createdAt,value
2023-01-03T00:00:26.974Z,97959.69
2023-01-03T00:01:30.124Z,97963.16
2023-01-03T00:02:31.795Z,97963.16
2023-01-03T00:03:33.370Z,97958.38
2023-01-03T00:04:35.035Z,97963.16
2023-01-03T00:05:36.751Z,97961.59
2023-01-03T00:06:46.598Z,97960.28
2023-01-03T00:07:48.108Z,97964.81
2023-01-03T00:08:50.447Z,97966.94
2023-01-03T00:09:51.954Z,97975.16
2023-01-03T00:10:53.519Z,97962.69
2023-01-03T00:12:13.665Z,97967.19
2023-01-03T00:13:15.190Z,97965.66
2023-01-03T00:14:25.657Z,97969.09
2023-01-03T00:15:27.400Z,97970.16
2023-01-03T00:16:28.942Z,97962.47
2023-01-03T00:17:30.547Z,97963.81
2023-01-03T00:18:32.088Z,97962.22
2023-01-03T00:19:36.650Z,97966.47
2023-01-03T00:20:38.287Z,97967.78
2023-01-03T00:21:41.458Z,97963.28
2023-01-03T00:22:43.022Z,97965.91
2023-01-03T00:23:44.630Z,97961.16
2023-01-03T00:24:47.881Z,97972.28
2023-01-03T00:25:49.409Z,97964.56
2023-01-03T00:26:51.439Z,97970.63
2023-01-03T00:27:53.067Z,97967.97
2023-01-03T00:28:54.652Z,97972.25
2023-01-03T00:29:56.216Z,97970.63
2023-01-03T00:30:57.786Z,97971.72
2023-01-03T00:31:59.906Z,97977.00
2023-01-03T00:33:01.652Z,97973.78
2023-01-03T00:34:04.115Z,97969.50
2023-01-03T00:35:06.290Z,97965.75
2023-01-03T00:36:09.585Z,97968.91
2023-01-03T00:37:11.374Z,97966.22
2023-01-03T00:38:12.916Z,97973.66
2023-01-03T00:39:14.905Z,97968.84
2023-01-03T00:40:16.536Z,97968.31
2023-01-03T00:41:19.764Z,97970.44
2023-01-03T00:42:21.303Z,97972.06
2023-01-03T00:43:31.500Z,97976.81
2023-01-03T00:44:33.606Z,97963.88
2023-01-03T00:45:35.828Z,97965.19
2023-01-03T00:46:37.505Z,97969.97
2023-01-03T00:47:39.097Z,97966.78
2023-01-03T00:48:41.411Z,97971.06
2023-01-03T00:49:42.947Z,97971.56
2023-01-03T00:50:44.570Z,97973.16
2023-01-03T00:51:46.145Z,97966.78
2023-01-03T00:52:47.693Z,97968.91
2023-01-03T00:53:52.146Z,97967.84
2023-01-03T00:54:53.732Z,97969.44
2023-01-03T00:55:55.937Z,97963.09
2023-01-03T00:56:57.477Z,97962.28
2023-01-03T00:57:59.023Z,97965.75
2023-01-03T00:59:01.171Z,97965.75
2023-01-03T01:00:03.928Z,97963.09
2023-01-03T01:01:11.606Z,97962.81
2023-01-03T01:02:13.431Z,97964.13
2023-01-03T01:03:18.062Z,97969.94
2023-01-03T01:04:21.471Z,97963.81
2023-01-03T01:05:23.420Z,97961.66
2023-01-03T01:06:34.004Z,97964.06
2023-01-03T01:07:35.960Z,97963.81
2023-01-03T01:08:37.605Z,97957.16
2023-01-03T01:09:39.175Z,97959.31
2023-01-03T01:11:01.829Z,97963.81
2023-01-03T01:12:05.558Z,97957.75
2023-01-03T01:13:07.074Z,97964.91
2023-01-03T01:14:22.422Z,97962.81
2023-01-03T01:15:24.127Z,97964.69
2023-01-03T01:16:31.378Z,97961.50
2023-01-03T01:17:32.970Z,97968.44
2023-01-03T01:18:35.697Z,97964.47
2023-01-03T01:19:40.291Z,97967.41
2023-01-03T01:20:41.861Z,97955.19
2023-01-03T01:21:44.194Z,97957.03
2023-01-03T01:22:45.762Z,97959.44
2023-01-03T01:23:47.379Z,97953.84
2023-01-03T01:24:49.182Z,97956.50
2023-01-03T01:25:50.749Z,97954.63
2023-01-03T01:26:52.539Z,97955.13
2023-01-03T01:27:54.056Z,97958.25
2023-01-03T01:28:56.090Z,97950.81
2023-01-03T01:29:57.847Z,97953.97
2023-01-03T01:31:00.847Z,97951.31
2023-01-03T01:32:03.003Z,97949.94
2023-01-03T01:33:04.581Z,97956.78
2023-01-03T01:34:06.343Z,97953.25
2023-01-03T01:35:08.283Z,97952.03
2023-01-03T01:36:17.904Z,97953.44
2023-01-03T01:37:19.436Z,97948.34
2023-01-03T01:38:21.032Z,97960.13
2023-01-03T01:39:25.497Z,97953.94
2023-01-03T01:40:27.455Z,97952.00
2023-01-03T01:41:49.775Z,97945.06
2023-01-03T01:43:09.909Z,97957.19
2023-01-03T01:44:48.418Z,97943.69
2023-01-03T01:45:50.011Z,97956.69
2023-01-03T01:46:52.636Z,97945.81
2023-01-03T01:47:59.981Z,97949.22
2023-01-03T01:49:10.895Z,97952.91
2023-01-03T01:50:20.911Z,97952.22
2023-01-03T01:51:24.694Z,97946.69
2023-01-03T01:52:28.486Z,97951.91
2023-01-03T01:53:34.596Z,97947.16
2023-01-03T01:54:36.306Z,97947.22
2023-01-03T01:55:48.230Z,97950.97
2023-01-03T01:56:52.899Z,97952.56
2023-01-03T01:57:54.706Z,97955.16
2023-01-03T01:58:56.883Z,97944.03
2023-01-03T01:59:58.468Z,97949.00
2023-01-03T02:01:00.401Z,97946.06
2023-01-03T02:02:02.520Z,97949.81
2023-01-03T02:03:04.721Z,97945.31
2023-01-03T02:04:17.505Z,97948.03
2023-01-03T02:05:20.883Z,97952.09
2023-01-03T02:06:24.239Z,97947.41
2023-01-03T02:07:26.141Z,97948.81
2023-01-03T02:08:27.670Z,97943.25
2023-01-03T02:09:32.253Z,97940.03
2023-01-03T02:10:45.884Z,97939.16
2023-01-03T02:12:30.956Z,97950.09
2023-01-03T02:14:03.257Z,97937.72
2023-01-03T02:15:25.205Z,97942.31
2023-01-03T02:16:26.830Z,97945.63
2023-01-03T02:17:47.215Z,97938.28
2023-01-03T02:18:54.937Z,97945.78
2023-01-03T02:20:11.258Z,97942.13
2023-01-03T02:21:34.389Z,97938.44
2023-01-03T02:23:00.422Z,97941.38
2023-01-03T02:24:34.301Z,97936.41
2023-01-03T02:25:51.175Z,97940.19
2023-01-03T02:27:30.856Z,97943.19
2023-01-03T02:28:54.451Z,97937.66
2023-01-03T02:30:20.256Z,97940.09
2023-01-03T02:31:55.212Z,97942.78
2023-01-03T02:33:22.513Z,97948.91
2023-01-03T02:34:39.555Z,97934.09
2023-01-03T02:36:09.617Z,97939.41
2023-01-03T02:37:26.738Z,97940.78
2023-01-03T02:38:48.989Z,97937.31
2023-01-03T02:39:57.954Z,97936.28
2023-01-03T02:41:05.687Z,97937.84
2023-01-03T02:42:49.143Z,97928.34
2023-01-03T02:44:25.989Z,97939.38
2023-01-03T02:45:35.360Z,97939.56
2023-01-03T02:47:01.132Z,97939.31
2023-01-03T02:48:14.529Z,97941.00
2023-01-03T02:49:28.595Z,97938.38
2023-01-03T02:50:40.633Z,97941.56
2023-01-03T02:51:47.482Z,97939.44
2023-01-03T02:52:51.195Z,97941.31
2023-01-03T02:53:53.409Z,97936.88
2023-01-03T02:55:26.414Z,97939.28
2023-01-03T02:56:35.197Z,97939.06
2023-01-03T02:57:43.500Z,97938.03
2023-01-03T02:58:49.137Z,97944.41
2023-01-03T02:59:55.177Z,97945.22
2023-01-03T03:01:02.023Z,97941.22
2023-01-03T03:02:05.446Z,97942.81
2023-01-03T03:03:13.670Z,97944.41
2023-01-03T03:04:15.550Z,97944.41
2023-01-03T03:05:23.750Z,97950.81
2023-01-03T03:06:47.513Z,97946.03
2023-01-03T03:07:49.227Z,97947.91
2023-01-03T03:08:50.812Z,97949.78
2023-01-03T03:10:11.303Z,97952.44
2023-01-03T03:11:32.401Z,97950.84
2023-01-03T03:12:55.784Z,97955.59
2023-01-03T03:14:22.564Z,97947.63
2023-01-03T03:15:32.752Z,97956.69
2023-01-03T03:16:47.908Z,97946.06
2023-01-03T03:17:54.351Z,97948.16
2023-01-03T03:19:00.504Z,97946.88
2023-01-03T03:20:20.844Z,97938.63
2023-01-03T03:21:45.933Z,97944.25
2023-01-03T03:23:14.958Z,97941.31
2023-01-03T03:24:48.097Z,97938.13
2023-01-03T03:25:53.946Z,97939.72
2023-01-03T03:26:58.641Z,97935.50
2023-01-03T03:28:23.924Z,97932.31
2023-01-03T03:29:28.421Z,97936.81
2023-01-03T03:30:33.774Z,97945.00
2023-01-03T03:31:43.033Z,97945.00
2023-01-03T03:32:47.593Z,97944.50
2023-01-03T03:33:51.109Z,97940.25
2023-01-03T03:34:55.990Z,97946.63
2023-01-03T03:36:04.639Z,97947.41
2023-01-03T03:37:13.884Z,97952.44
2023-01-03T03:38:25.759Z,97947.63
2023-01-03T03:39:49.533Z,97946.56
2023-01-03T03:41:18.525Z,97948.94
2023-01-03T03:42:44.475Z,97947.03
2023-01-03T03:44:14.530Z,97947.50
2023-01-03T03:45:25.493Z,97939.75
2023-01-03T03:46:34.216Z,97942.66
2023-01-03T03:47:35.759Z,97945.06
2023-01-03T03:49:06.354Z,97949.03
2023-01-03T03:50:35.330Z,97940.00
2023-01-03T03:51:41.120Z,97942.69
2023-01-03T03:52:46.622Z,97942.16
2023-01-03T03:53:50.141Z,97946.41
2023-01-03T03:54:59.175Z,97949.06
2023-01-03T03:56:09.154Z,97942.72
2023-01-03T03:57:13.356Z,97941.66
2023-01-03T03:58:27.854Z,97944.84
2023-01-03T03:59:31.908Z,97938.25
2023-01-03T04:00:38.483Z,97935.34
2023-01-03T04:01:42.576Z,97941.41
2023-01-03T04:02:47.248Z,97940.66
2023-01-03T04:03:52.150Z,97945.44
2023-01-03T04:04:59.398Z,97947.03
2023-01-03T04:06:10.362Z,97944.09
2023-01-03T04:07:12.299Z,97943.84
2023-01-03T04:08:13.979Z,97947.03
2023-01-03T04:09:16.229Z,97947.03
2023-01-03T04:10:20.225Z,97941.22
2023-01-03T04:11:21.899Z,97947.03
2023-01-03T04:12:23.642Z,97943.34
2023-01-03T04:13:25.231Z,97939.63
2023-01-03T04:14:26.843Z,97944.66
2023-01-03T04:15:28.423Z,97939.13
2023-01-03T04:16:30.112Z,97939.16
2023-01-03T04:17:31.735Z,97943.41
2023-01-03T04:18:33.762Z,97944.19
2023-01-03T04:19:35.288Z,97944.97
2023-01-03T04:20:36.816Z,97940.75
2023-01-03T04:21:38.525Z,97949.22
2023-01-03T04:22:40.158Z,97948.16
2023-01-03T04:23:41.692Z,97946.31
2023-01-03T04:24:43.241Z,97947.63
2023-01-03T04:25:44.772Z,97947.63
2023-01-03T04:26:46.593Z,97940.25
2023-01-03T04:27:48.167Z,97946.63
2023-01-03T04:28:49.701Z,97948.75
2023-01-03T04:29:51.309Z,97947.44
2023-01-03T04:30:52.853Z,97952.50
2023-01-03T04:31:54.575Z,97944.28
2023-01-03T04:32:57.354Z,97946.66
2023-01-03T04:33:58.964Z,97950.34
2023-01-03T04:35:00.543Z,97945.59
2023-01-03T04:36:02.147Z,97954.34
2023-01-03T04:37:03.791Z,97947.69
2023-01-03T04:38:05.923Z,97940.50
2023-01-03T04:39:10.344Z,97948.75
2023-01-03T04:40:13.423Z,97947.16
2023-01-03T04:41:15.906Z,97949.53
2023-01-03T04:42:36.010Z,97950.31
2023-01-03T04:43:56.011Z,97950.31
2023-01-03T04:44:57.691Z,97952.44
2023-01-03T04:45:59.539Z,97954.53
2023-01-03T04:47:01.093Z,97953.75
2023-01-03T04:48:02.751Z,97956.13
2023-01-03T04:49:06.659Z,97957.69
2023-01-03T04:50:09.663Z,97961.41
2023-01-03T04:51:11.553Z,97959.78
2023-01-03T04:52:14.800Z,97965.63
2023-01-03T04:53:17.435Z,97965.63
2023-01-03T04:54:19.005Z,97971.97
2023-01-03T04:55:20.768Z,97970.94
2023-01-03T04:56:31.378Z,97975.69
2023-01-03T04:57:32.889Z,97972.00
2023-01-03T04:58:34.454Z,97970.66
2023-01-03T04:59:37.070Z,97965.91
2023-01-03T05:00:38.649Z,97972.56
2023-01-03T05:01:40.419Z,97968.56
2023-01-03T05:02:42.113Z,97974.69
2023-01-03T05:03:43.726Z,97968.56
2023-01-03T05:04:45.408Z,97974.69
2023-01-03T05:05:46.990Z,97970.97
2023-01-03T05:06:48.554Z,97975.22
2023-01-03T05:07:50.105Z,97974.94
2023-01-03T05:08:51.902Z,97977.34
2023-01-03T05:09:53.474Z,97977.09
2023-01-03T05:10:55.074Z,97975.78
2023-01-03T05:11:57.263Z,97978.44
2023-01-03T05:13:02.248Z,97981.63
2023-01-03T05:14:06.912Z,97976.34
2023-01-03T05:15:11.091Z,97974.72
2023-01-03T05:16:14.803Z,97979.69
2023-01-03T05:17:19.287Z,97978.69
2023-01-03T05:18:20.967Z,97984.00
2023-01-03T05:19:23.958Z,97978.97
2023-01-03T05:20:44.961Z,97982.94
2023-01-03T05:22:05.208Z,97987.19
2023-01-03T05:23:25.381Z,97980.81
2023-01-03T05:24:55.815Z,97986.13
2023-01-03T05:25:58.608Z,97988.78
2023-01-03T05:27:02.847Z,97985.03
2023-01-03T05:28:04.955Z,97991.66
2023-01-03T05:29:07.594Z,97987.69
2023-01-03T05:30:09.564Z,97985.28
2023-01-03T05:31:11.179Z,97985.28
2023-01-03T05:32:12.798Z,97988.22
2023-01-03T05:33:14.799Z,97983.44
2023-01-03T05:34:16.571Z,97985.56
2023-01-03T05:35:18.480Z,97991.66
2023-01-03T05:36:20.135Z,97990.31
2023-01-03T05:37:23.100Z,97996.66
2023-01-03T05:38:24.911Z,97990.00
2023-01-03T05:39:26.479Z,97992.94
2023-01-03T05:40:28.064Z,97999.28
2023-01-03T05:41:48.125Z,98000.34
2023-01-03T05:42:49.639Z,98001.66
2023-01-03T05:43:51.153Z,98000.84
2023-01-03T05:44:52.729Z,97997.41
2023-01-03T05:45:54.422Z,98001.09
2023-01-03T05:46:56.783Z,98004.00
2023-01-03T05:47:58.688Z,98004.00
2023-01-03T05:49:00.362Z,98002.94
2023-01-03T05:50:01.931Z,98007.16
2023-01-03T05:51:03.753Z,97998.66
2023-01-03T05:52:05.488Z,98000.25
2023-01-03T05:53:07.134Z,98007.97
2023-01-03T05:54:12.531Z,98008.75
2023-01-03T05:55:14.066Z,98006.88
2023-01-03T05:56:17.094Z,98011.41
2023-01-03T05:57:18.647Z,98001.88
2023-01-03T05:58:20.279Z,97998.13
2023-01-03T05:59:22.850Z,98006.63
2023-01-03T06:00:24.817Z,98010.09
2023-01-03T06:01:28.290Z,98001.34
2023-01-03T06:02:29.987Z,98004.53
2023-01-03T06:03:31.620Z,98010.91
2023-01-03T06:04:33.223Z,98006.38
2023-01-03T06:05:34.862Z,98004.53
2023-01-03T06:06:36.472Z,98009.31
2023-01-03T06:07:38.247Z,98007.22
2023-01-03T06:08:40.222Z,98008.25
2023-01-03T06:09:41.738Z,98006.69
2023-01-03T06:10:43.303Z,98012.78
2023-01-03T06:11:45.114Z,98005.38
2023-01-03T06:12:46.772Z,98002.44
2023-01-03T06:13:48.294Z,98007.75
2023-01-03T06:14:49.853Z,98013.34
2023-01-03T06:16:10.036Z,98016.25
2023-01-03T06:17:30.116Z,98015.16
2023-01-03T06:18:31.647Z,98013.81
2023-01-03T06:19:33.184Z,98009.03
2023-01-03T06:20:34.686Z,98014.03
2023-01-03T06:21:37.105Z,98014.31
2023-01-03T06:22:38.770Z,98011.38
2023-01-03T06:23:40.312Z,98004.22
2023-01-03T06:24:41.819Z,98008.47
2023-01-03T06:25:43.318Z,98010.59
2023-01-03T06:26:44.828Z,98007.66
2023-01-03T06:27:46.855Z,98010.88
2023-01-03T06:28:48.443Z,98012.47
2023-01-03T06:29:50.017Z,98010.34
2023-01-03T06:30:51.640Z,98006.63
2023-01-03T06:31:53.261Z,98015.16
2023-01-03T06:32:54.836Z,98018.59
2023-01-03T06:33:56.429Z,98013.53
2023-01-03T06:34:57.993Z,98015.34
2023-01-03T06:36:11.699Z,98018.78
2023-01-03T06:37:13.240Z,98019.84
2023-01-03T06:38:14.811Z,98012.44
2023-01-03T06:39:16.445Z,98022.22
2023-01-03T06:40:19.344Z,98022.47
2023-01-03T06:41:21.355Z,98015.53
2023-01-03T06:42:44.254Z,98018.47
2023-01-03T06:43:46.035Z,98018.69
2023-01-03T06:45:07.564Z,98016.38
2023-01-03T06:46:29.450Z,98029.25
2023-01-03T06:47:49.700Z,98022.59
2023-01-03T06:49:10.130Z,98021.31
2023-01-03T06:50:30.290Z,98021.09
2023-01-03T06:51:51.637Z,98024.25
2023-01-03T06:53:11.716Z,98027.50
2023-01-03T06:54:22.200Z,98021.19
2023-01-03T06:55:23.734Z,98019.38
2023-01-03T06:56:26.102Z,98016.19
2023-01-03T06:57:27.947Z,98015.94
2023-01-03T06:58:29.926Z,98016.50
2023-01-03T06:59:31.735Z,98019.19
2023-01-03T07:00:36.695Z,98012.88
2023-01-03T07:01:39.373Z,98015.53
2023-01-03T07:02:41.073Z,98015.31
2023-01-03T07:03:42.702Z,98020.06
2023-01-03T07:04:44.338Z,98012.16
2023-01-03T07:05:45.949Z,98017.47
2023-01-03T07:06:47.553Z,98010.88
2023-01-03T07:07:49.307Z,98014.03
2023-01-03T07:08:51.554Z,98016.44
2023-01-03T07:09:53.220Z,98010.88
2023-01-03T07:10:55.429Z,98020.94
2023-01-03T07:11:57.019Z,98013.53
2023-01-03T07:13:19.770Z,98018.31
2023-01-03T07:14:21.341Z,98016.72
2023-01-03T07:15:22.919Z,98021.47
2023-01-03T07:16:31.901Z,98011.91
2023-01-03T07:17:33.584Z,98019.31
2023-01-03T07:18:35.275Z,98024.91
2023-01-03T07:19:36.810Z,98023.03
2023-01-03T07:20:45.156Z,98027.22
2023-01-03T07:21:47.201Z,98019.31
2023-01-03T07:22:48.754Z,98021.19
2023-01-03T07:23:52.374Z,98020.34
2023-01-03T07:24:53.888Z,98026.16
2023-01-03T07:25:56.046Z,98022.97
2023-01-03T07:26:57.526Z,98026.13
2023-01-03T07:28:05.748Z,98031.91
2023-01-03T07:29:10.414Z,98029.25
2023-01-03T07:30:12.450Z,98029.72
2023-01-03T07:31:14.074Z,98026.28
2023-01-03T07:32:15.732Z,98030.25
2023-01-03T07:33:18.619Z,98032.88
2023-01-03T07:34:20.147Z,98026.97
2023-01-03T07:35:21.679Z,98033.88
2023-01-03T07:36:23.265Z,98029.66
2023-01-03T07:37:24.825Z,98035.56
2023-01-03T07:38:26.384Z,98025.47
2023-01-03T07:39:27.911Z,98028.63
2023-01-03T07:40:30.141Z,98034.94
2023-01-03T07:41:50.062Z,98037.56
2023-01-03T07:43:10.115Z,98036.00
2023-01-03T07:44:11.924Z,98030.13
2023-01-03T07:45:13.499Z,98034.38
2023-01-03T07:46:16.142Z,98034.56
2023-01-03T07:47:17.755Z,98036.13
2023-01-03T07:48:19.265Z,98036.91
2023-01-03T07:49:20.819Z,98038.44
2023-01-03T07:50:22.394Z,98034.25
2023-01-03T07:51:23.962Z,98040.06
2023-01-03T07:52:25.480Z,98028.47
2023-01-03T07:53:27.870Z,98031.72
2023-01-03T07:54:29.480Z,98037.28
2023-01-03T07:55:35.337Z,98030.13
2023-01-03T07:56:37.178Z,98031.13
2023-01-03T07:57:38.899Z,98036.84
2023-01-03T07:58:42.979Z,98033.59
2023-01-03T07:59:44.529Z,98034.16
2023-01-03T08:00:46.142Z,98035.06
2023-01-03T08:01:47.830Z,98033.81
2023-01-03T08:02:53.368Z,98036.41
2023-01-03T08:03:55.087Z,98038.50
2023-01-03T08:04:56.782Z,98031.94
2023-01-03T08:06:03.619Z,98038.78
2023-01-03T08:07:05.157Z,98039.31
2023-01-03T08:08:06.888Z,98029.53
2023-01-03T08:09:27.230Z,98032.22
2023-01-03T08:10:49.052Z,98029.25
2023-01-03T08:12:08.982Z,98034.16
2023-01-03T08:13:19.933Z,98032.88
2023-01-03T08:14:25.707Z,98027.56
2023-01-03T08:15:28.566Z,98029.69
2023-01-03T08:16:30.137Z,98025.50
2023-01-03T08:17:31.771Z,98027.91
2023-01-03T08:18:33.299Z,98032.94
2023-01-03T08:19:37.813Z,98035.03
2023-01-03T08:20:43.460Z,98036.34
2023-01-03T08:21:45.052Z,98033.47
2023-01-03T08:22:46.589Z,98039.28
2023-01-03T08:23:48.932Z,98033.47
2023-01-03T08:24:50.676Z,98037.66
2023-01-03T08:25:52.844Z,98037.16
2023-01-03T08:26:54.416Z,98039.84
2023-01-03T08:28:00.748Z,98038.81
2023-01-03T08:29:02.301Z,98036.69
2023-01-03T08:30:04.597Z,98035.91
2023-01-03T08:31:13.183Z,98034.22
2023-01-03T08:32:15.639Z,98036.59
2023-01-03T08:33:19.133Z,98033.59
2023-01-03T08:34:29.105Z,98033.84
2023-01-03T08:35:34.866Z,98033.59
2023-01-03T08:36:45.470Z,98036.50
2023-01-03T08:37:48.838Z,98032.84
2023-01-03T08:39:00.618Z,98029.69
2023-01-03T08:40:04.944Z,98034.00
2023-01-03T08:41:10.006Z,98031.69
2023-01-03T08:42:17.280Z,98030.97
2023-01-03T08:43:19.292Z,98031.22
2023-01-03T08:44:20.883Z,98033.06
2023-01-03T08:45:22.539Z,98035.09
2023-01-03T08:46:24.293Z,98036.91
2023-01-03T08:47:26.354Z,98022.41
2023-01-03T08:48:28.176Z,98030.34
2023-01-03T08:49:30.048Z,98025.59
2023-01-03T08:50:32.120Z,98027.19
2023-01-03T08:51:33.747Z,98027.16
2023-01-03T08:52:35.683Z,98029.31
2023-01-03T08:53:37.341Z,98030.09
2023-01-03T08:54:39.526Z,98026.25
2023-01-03T08:55:41.322Z,98025.38
2023-01-03T08:56:42.931Z,98023.28
2023-01-03T08:57:44.504Z,98026.50
2023-01-03T08:58:46.339Z,98023.03
2023-01-03T08:59:47.864Z,98021.69
2023-01-03T09:00:49.432Z,98025.16
2023-01-03T09:01:51.217Z,98013.81
2023-01-03T09:02:53.102Z,98026.38
2023-01-03T09:03:54.895Z,98018.94
2023-01-03T09:04:56.621Z,98020.25
2023-01-03T09:06:02.712Z,98017.81
2023-01-03T09:07:05.580Z,98014.97
2023-01-03T09:08:07.356Z,98015.00
2023-01-03T09:09:09.936Z,98017.69
2023-01-03T09:10:11.706Z,98026.41
2023-01-03T09:11:13.271Z,98009.69
2023-01-03T09:12:14.831Z,98007.09
2023-01-03T09:13:16.380Z,98014.31
2023-01-03T09:14:18.041Z,98014.03
2023-01-03T09:15:19.919Z,98018.56
2023-01-03T09:16:21.558Z,98011.41
2023-01-03T09:17:23.222Z,98006.88
2023-01-03T09:18:24.756Z,98010.28
2023-01-03T09:19:26.317Z,98011.66
2023-01-03T09:20:27.876Z,98010.84
2023-01-03T09:21:29.610Z,98004.69
2023-01-03T09:22:31.192Z,98006.19
2023-01-03T09:23:34.030Z,98003.75
2023-01-03T09:24:35.599Z,98005.84
2023-01-03T09:25:37.777Z,98004.81
2023-01-03T09:26:39.434Z,98001.84
2023-01-03T09:27:48.082Z,97996.25
2023-01-03T09:28:50.220Z,98002.63
2023-01-03T09:29:53.196Z,97990.72
2023-01-03T09:30:55.023Z,97997.66
2023-01-03T09:31:56.631Z,97987.31
2023-01-03T09:32:58.178Z,97996.09
2023-01-03T09:34:05.348Z,97986.31
2023-01-03T09:35:07.531Z,97976.28
2023-01-03T09:36:09.169Z,97983.22
2023-01-03T09:37:10.747Z,97983.75
2023-01-03T09:38:12.341Z,97970.28
2023-01-03T09:39:14.433Z,97981.69
2023-01-03T09:40:16.366Z,97974.53
2023-01-03T09:41:25.736Z,97973.75
2023-01-03T09:42:47.488Z,97973.50
2023-01-03T09:43:52.581Z,97969.50
2023-01-03T09:44:54.388Z,97972.72
2023-01-03T09:46:01.619Z,97966.66
2023-01-03T09:47:04.780Z,97968.50
2023-01-03T09:48:07.113Z,97963.19
2023-01-03T09:49:12.539Z,97962.09
2023-01-03T09:50:39.237Z,97966.28
2023-01-03T09:52:04.997Z,97953.50
2023-01-03T09:53:25.296Z,97954.88
2023-01-03T09:54:57.186Z,97951.50
2023-01-03T09:56:19.466Z,97954.97
2023-01-03T09:57:49.503Z,97946.66
2023-01-03T09:59:32.287Z,97941.94
2023-01-03T10:01:00.643Z,97932.97
2023-01-03T10:02:45.959Z,97935.09
2023-01-03T10:04:18.118Z,97932.44
2023-01-03T10:06:11.102Z,97933.00
2023-01-03T10:07:28.275Z,97934.63
2023-01-03T10:09:02.971Z,97934.63
2023-01-03T10:10:43.214Z,97928.25
2023-01-03T10:12:05.799Z,97925.06
2023-01-03T10:13:25.650Z,97926.13
2023-01-03T10:14:42.092Z,97928.78
2023-01-03T10:16:12.914Z,97930.38
2023-01-03T10:17:53.731Z,97927.72
2023-01-03T10:19:50.334Z,97917.66
2023-01-03T10:20:57.390Z,97913.41
2023-01-03T10:22:14.919Z,97914.47
2023-01-03T10:23:18.388Z,97911.25
2023-01-03T10:24:32.252Z,97911.25
2023-01-03T10:25:36.469Z,97909.09
2023-01-03T10:26:38.022Z,97901.66
2023-01-03T10:27:46.885Z,97905.91
2023-01-03T10:28:48.616Z,97903.72
2023-01-03T10:29:53.942Z,97904.22
2023-01-03T10:31:14.489Z,97891.25
2023-01-03T10:32:36.577Z,97900.00
2023-01-03T10:33:47.256Z,97888.63
2023-01-03T10:35:16.742Z,97893.16
2023-01-03T10:36:20.867Z,97889.38
2023-01-03T10:37:23.875Z,97884.63
2023-01-03T10:38:26.192Z,97887.78
2023-01-03T10:39:31.756Z,97882.47
2023-01-03T10:40:44.466Z,97882.44
2023-01-03T10:41:48.363Z,97874.19
2023-01-03T10:42:50.506Z,97875.81
2023-01-03T10:44:03.543Z,97872.91
2023-01-03T10:45:10.600Z,97872.69
2023-01-03T10:46:16.824Z,97862.94
2023-01-03T10:47:18.466Z,97867.16
2023-01-03T10:48:20.043Z,97867.72
2023-01-03T10:49:27.853Z,97860.28
2023-01-03T10:50:37.793Z,97855.50
2023-01-03T10:51:49.769Z,97854.44
2023-01-03T10:52:58.324Z,97848.34
2023-01-03T10:54:09.656Z,97848.09
2023-01-03T10:55:14.988Z,97849.69
2023-01-03T10:56:17.171Z,97850.75
2023-01-03T10:57:40.072Z,97843.56
2023-01-03T10:58:41.628Z,97841.69
2023-01-03T10:59:49.320Z,97851.78
2023-01-03T11:01:09.838Z,97845.94
2023-01-03T11:02:16.530Z,97844.31
2023-01-03T11:03:19.650Z,97846.41
2023-01-03T11:04:21.341Z,97840.03
2023-01-03T11:05:25.446Z,97835.75
2023-01-03T11:06:27.423Z,97832.59
2023-01-03T11:07:29.464Z,97833.66
2023-01-03T11:08:56.433Z,97823.81
2023-01-03T11:09:58.513Z,97824.03
2023-01-03T11:11:00.801Z,97818.16
2023-01-03T11:12:38.756Z,97820.78
2023-01-03T11:13:42.255Z,97811.59
2023-01-03T11:14:57.802Z,97817.22
2023-01-03T11:16:01.871Z,97812.41
2023-01-03T11:17:05.844Z,97811.88
2023-01-03T11:18:18.379Z,97807.13
2023-01-03T11:19:20.306Z,97809.53
2023-01-03T11:20:35.658Z,97802.34
2023-01-03T11:21:51.557Z,97807.91
2023-01-03T11:23:00.850Z,97806.00
2023-01-03T11:24:08.503Z,97803.38
2023-01-03T11:25:13.092Z,97800.25
2023-01-03T11:26:43.222Z,97800.53
2023-01-03T11:27:58.400Z,97792.84
2023-01-03T11:29:17.114Z,97788.03
2023-01-03T11:30:27.847Z,97789.63
2023-01-03T11:31:33.721Z,97789.09
2023-01-03T11:32:47.161Z,97785.94
2023-01-03T11:34:05.788Z,97786.47
2023-01-03T11:35:26.382Z,97778.78
2023-01-03T11:37:00.133Z,97776.88
2023-01-03T11:38:39.040Z,97772.06
2023-01-03T11:39:46.775Z,97769.16
2023-01-03T11:40:52.326Z,97765.41
2023-01-03T11:42:27.242Z,97766.97
2023-01-03T11:43:52.118Z,97758.69
2023-01-03T11:45:10.417Z,97758.13
2023-01-03T11:46:21.251Z,97754.66
2023-01-03T11:47:25.706Z,97751.47
2023-01-03T11:49:05.936Z,97756.78
2023-01-03T11:50:41.535Z,97753.28
2023-01-03T11:51:48.850Z,97741.03
2023-01-03T11:53:00.883Z,97745.03
2023-01-03T11:54:07.284Z,97745.09
2023-01-03T11:55:08.832Z,97744.25
2023-01-03T11:56:34.827Z,97739.97
2023-01-03T11:57:39.235Z,97742.88
2023-01-03T11:59:18.075Z,97734.00
2023-01-03T12:00:28.627Z,97729.66
2023-01-03T12:01:49.237Z,97728.28
2023-01-03T12:03:03.227Z,97724.84
2023-01-03T12:04:38.595Z,97723.53
2023-01-03T12:05:46.285Z,97722.69
2023-01-03T12:07:37.396Z,97728.25
2023-01-03T12:08:44.881Z,97725.50
2023-01-03T12:10:05.300Z,97718.72
2023-01-03T12:11:28.080Z,97718.72
2023-01-03T12:12:29.554Z,97708.66
2023-01-03T12:13:59.445Z,97710.16
2023-01-03T12:15:12.382Z,97710.91
2023-01-03T12:16:25.358Z,97707.06
2023-01-03T12:17:54.016Z,97710.97
2023-01-03T12:19:02.004Z,97708.50
2023-01-03T12:20:19.601Z,97701.84
2023-01-03T12:21:37.594Z,97701.78
2023-01-03T12:22:49.135Z,97703.41
2023-01-03T12:23:56.253Z,97698.81
2023-01-03T12:25:16.596Z,97701.94
2023-01-03T12:26:19.116Z,97692.63
2023-01-03T12:27:44.385Z,97695.81
2023-01-03T12:28:56.346Z,97694.22
2023-01-03T12:30:02.498Z,97689.50
2023-01-03T12:31:31.965Z,97684.97
2023-01-03T12:32:59.691Z,97682.78
2023-01-03T12:34:19.803Z,97690.72
2023-01-03T12:35:51.111Z,97685.63
2023-01-03T12:37:17.065Z,97683.47
2023-01-03T12:38:25.454Z,97680.25
2023-01-03T12:39:35.528Z,97673.25
2023-01-03T12:40:54.244Z,97681.41
2023-01-03T12:42:14.139Z,97676.53
2023-01-03T12:43:33.555Z,97673.53
2023-01-03T12:44:40.749Z,97676.13
2023-01-03T12:46:00.897Z,97678.72
2023-01-03T12:47:06.406Z,97670.13
2023-01-03T12:48:10.949Z,97669.72
2023-01-03T12:49:15.111Z,97673.59
2023-01-03T12:50:30.692Z,97673.75
2023-01-03T12:51:32.567Z,97672.28
2023-01-03T12:52:35.601Z,97670.34
2023-01-03T12:53:41.093Z,97664.91
2023-01-03T12:54:52.376Z,97664.34
2023-01-03T12:56:18.190Z,97656.03
2023-01-03T12:57:25.758Z,97659.72
2023-01-03T12:58:27.377Z,97653.88
2023-01-03T12:59:43.833Z,97662.47
2023-01-03T13:01:08.642Z,97660.88
2023-01-03T13:02:47.265Z,97654.81
2023-01-03T13:03:55.105Z,97660.72
2023-01-03T13:05:16.510Z,97659.50
2023-01-03T13:06:25.928Z,97654.16
2023-01-03T13:07:34.108Z,97660.31
2023-01-03T13:08:57.895Z,97655.75
2023-01-03T13:10:05.672Z,97657.75
2023-01-03T13:11:15.535Z,97653.72
2023-01-03T13:12:21.406Z,97662.72
2023-01-03T13:13:23.106Z,97651.69
2023-01-03T13:14:27.889Z,97650.19
2023-01-03T13:15:36.702Z,97655.06
2023-01-03T13:16:44.460Z,97648.13
2023-01-03T13:17:47.867Z,97649.91
2023-01-03T13:18:49.977Z,97649.63
2023-01-03T13:20:26.498Z,97642.00